Time;durP1;ratioP1;P1;durP2;ratioP2;P2;SDS_P1;SDS_P2;PMS_P1;PMS_P2;Temp;Humidity;BMP_temperature;BMP_pressure;BME280_temperature;BME280_humidity;BME280_pressure;Samples;Min_cycle;Max_cycle;Signal;HPM_P1;HPM_P2
2021/08/24 00:00:58;;;;;;;;;;;15.30;99.90;;;;;;5013221;28;19928;-83
2021/08/24 00:03:23;;;;;;;;;;;15.30;99.90;;;;;;4975115;28;20377;-83
2021/08/24 00:05:59;;;;;;;;;;;15.30;99.90;;;;;;5004461;28;19991;-83
2021/08/24 00:08:35;;;;;;;;;;;15.30;99.90;;;;;;4988218;28;19921;-83
2021/08/24 00:11:16;;;;;;;;;;;15.30;99.90;;;;;;4974861;28;19925;-83
2021/08/24 00:13:41;;;;;;;;;;;15.30;99.90;;;;;;4989916;28;19996;-83
2021/08/24 00:16:18;;;;;;;;;;;;;;;;;;;;;
2021/08/24 00:18:59;;;;;;;;;;;15.30;99.90;;;;;;5010212;28;19932;-84
2021/08/24 00:21:25;;;;;;;;;;;15.20;99.90;;;;;;4995089;28;19925;-83
2021/08/24 00:23:50;;;;;;;;;;;15.20;99.90;;;;;;4990204;28;20534;-84
2021/08/24 00:26:16;;;;;;;;;;;15.20;99.90;;;;;;4991944;28;19922;-84
2021/08/24 00:28:42;;;;;;;;;;;15.20;99.90;;;;;;5010874;28;19931;-84
2021/08/24 00:31:07;;;;;;;;;;;15.20;99.90;;;;;;4995401;28;20004;-83
2021/08/24 00:33:33;;;;;;;;;;;15.20;99.90;;;;;;4994163;28;19925;-83
2021/08/24 00:36:00;;;;;;;;;;;15.20;99.90;;;;;;4991669;28;19929;-83
2021/08/24 00:38:26;;;;;;;;;;;15.20;99.90;;;;;;5007347;28;19921;-83
2021/08/24 00:40:57;;;;;;;;;;;15.20;99.90;;;;;;4989061;28;19917;-83
2021/08/24 00:43:23;;;;;;;;;;;15.20;99.90;;;;;;4990252;28;20456;-83
2021/08/24 00:45:51;;;;;;;;;;;15.10;99.90;;;;;;4990946;28;19929;-83
2021/08/24 00:48:18;;;;;;;;;;;15.10;99.90;;;;;;5002411;28;20013;-83
2021/08/24 00:50:47;;;;;;;;;;;15.10;99.90;;;;;;5011799;28;19928;-83
2021/08/24 00:53:14;;;;;;;;;;;15.10;99.90;;;;;;4992487;28;20304;-83
2021/08/24 00:55:41;;;;;;;;;;;15.10;99.90;;;;;;5009908;28;20378;-83
2021/08/24 00:58:10;;;;;;;;;;;15.00;99.90;;;;;;5004273;28;19925;-84
2021/08/24 01:00:36;;;;;;;;;;;15.00;99.90;;;;;;4987700;28;20369;-83
2021/08/24 01:03:09;;;;;;;;;;;15.00;99.90;;;;;;5002696;28;19925;-83
2021/08/24 01:09:07;;;;;;;;;;;14.90;99.90;;;;;;5024608;28;19925;-83
2021/08/24 01:11:42;;;;;;;;;;;14.90;99.90;;;;;;4993412;28;19932;-83
2021/08/24 01:14:27;;;;;;;;;;;14.90;99.90;;;;;;5010014;28;19964;-83
2021/08/24 01:17:03;;;;;;;;;;;14.90;99.90;;;;;;4985049;28;20339;-83
2021/08/24 01:19:38;;;;;;;;;;;14.90;99.90;;;;;;4990830;28;20012;-83
2021/08/24 01:22:22;;;;;;;;;;;14.90;99.90;;;;;;5024228;28;19973;-83
2021/08/24 01:24:55;;;;;;;;;;;14.90;99.90;;;;;;4996568;28;19925;-83
2021/08/24 01:31:03;;;;;;;;;;;14.90;99.90;;;;;;5005481;28;19964;-83
2021/08/24 01:33:42;;;;;;;;;;;14.90;99.90;;;;;;4975921;28;19956;-83
2021/08/24 01:36:11;;;;;;;;;;;14.90;99.90;;;;;;5007930;28;20317;-83
2021/08/24 01:38:40;;;;;;;;;;;14.90;99.90;;;;;;5010435;28;19924;-83
2021/08/24 01:41:08;;;;;;;;;;;14.90;99.90;;;;;;4993007;28;19925;-83
2021/08/24 01:47:03;;;;;;;;;;;14.90;99.90;;;;;;5023997;28;20288;-88
2021/08/24 01:49:38;;;;;;;;;;;14.90;99.90;;;;;;4998971;28;19929;-87
2021/08/24 01:52:06;;;;;;;;;;;14.90;99.90;;;;;;5013999;28;19925;-83
2021/08/24 01:54:35;;;;;;;;;;;14.90;99.90;;;;;;4990301;28;20381;-83
2021/08/24 01:57:02;;;;;;;;;;;14.90;99.90;;;;;;4996247;28;20000;-83
2021/08/24 01:59:34;;;;;;;;;;;14.90;99.90;;;;;;4979960;28;19925;-83
2021/08/24 02:02:03;;;;;;;;;;;14.90;99.90;;;;;;5014381;28;20485;-83
2021/08/24 02:04:32;;;;;;;;;;;14.90;99.90;;;;;;5019558;28;19979;-83
2021/08/24 02:06:59;;;;;;;;;;;14.90;99.90;;;;;;5013563;28;19971;-83
2021/08/24 02:09:31;;;;;;;;;;;14.90;99.90;;;;;;4994231;28;19953;-83
2021/08/24 02:11:57;;;;;;;;;;;14.90;99.90;;;;;;5009699;28;19937;-83
2021/08/24 02:14:24;;;;;;;;;;;14.90;99.90;;;;;;4997047;28;19974;-83
2021/08/24 02:16:50;;;;;;;;;;;14.90;99.90;;;;;;4980295;28;20446;-83
2021/08/24 02:19:19;;;;;;;;;;;14.90;99.90;;;;;;5009652;28;19925;-83
2021/08/24 02:21:52;;;;;;;;;;;14.90;99.90;;;;;;5009873;28;19925;-83
2021/08/24 02:24:20;;;;;;;;;;;14.90;99.90;;;;;;4992845;28;19969;-83
2021/08/24 02:26:49;;;;;;;;;;;15.00;99.90;;;;;;5005619;28;19925;-83
2021/08/24 02:32:39;;;;;;;;;;;14.90;99.90;;;;;;5025601;28;20327;-83
2021/08/24 02:35:12;;;;;;;;;;;14.90;99.90;;;;;;5014627;28;20340;-83
2021/08/24 02:37:50;;;;;;;;;;;14.90;99.90;;;;;;4997386;28;19925;-83
2021/08/24 02:40:16;;;;;;;;;;;14.90;99.90;;;;;;4996437;28;19925;-83
2021/08/24 02:42:48;;;;;;;;;;;14.90;99.90;;;;;;5005391;28;19917;-83
2021/08/24 02:45:16;;;;;;;;;;;14.90;99.90;;;;;;5013164;28;19925;-83
2021/08/24 02:47:42;;;;;;;;;;;14.90;99.90;;;;;;4996754;28;19975;-83
2021/08/24 02:50:09;;;;;;;;;;;14.90;99.90;;;;;;4982198;28;19929;-83
2021/08/24 02:52:36;;;;;;;;;;;14.80;99.90;;;;;;5006123;28;19930;-83
2021/08/24 02:55:03;;;;;;;;;;;14.80;99.90;;;;;;4973447;28;20359;-83
2021/08/24 02:57:28;;;;;;;;;;;14.80;99.90;;;;;;4959207;28;19969;-83
2021/08/24 02:59:54;;;;;;;;;;;14.80;99.90;;;;;;4972593;28;19965;-83
2021/08/24 03:02:20;;;;;;;;;;;14.70;99.90;;;;;;4973377;28;19930;-84
2021/08/24 03:04:46;;;;;;;;;;;14.70;99.90;;;;;;4973233;28;19925;-83
2021/08/24 03:07:13;;;;;;;;;;;14.70;99.90;;;;;;4974707;28;19934;-83
2021/08/24 03:09:40;;;;;;;;;;;14.70;99.90;;;;;;5007051;28;19933;-83
2021/08/24 03:12:18;;;;;;;;;;;14.70;99.90;;;;;;4973427;28;19918;-83
2021/08/24 03:14:50;;;;;;;;;;;14.70;99.90;;;;;;4971220;28;19930;-83
2021/08/24 03:17:18;;;;;;;;;;;14.70;99.90;;;;;;4990455;28;20416;-83
2021/08/24 03:19:45;;;;;;;;;;;14.70;99.90;;;;;;4976993;28;19925;-83
2021/08/24 03:22:11;;;;;;;;;;;14.70;99.90;;;;;;4978821;28;19988;-84
2021/08/24 03:24:37;;;;;;;;;;;14.60;99.90;;;;;;4978271;28;19926;-84
2021/08/24 03:27:05;;;;;;;;;;;14.60;99.90;;;;;;4977276;28;19926;-83
2021/08/24 03:29:31;;;;;;;;;;;14.60;99.90;;;;;;4976900;28;20299;-84
2021/08/24 03:31:57;;;;;;;;;;;14.60;99.90;;;;;;4994728;28;19933;-83
2021/08/24 03:34:23;;;;;;;;;;;14.60;99.90;;;;;;4986390;28;19933;-83
2021/08/24 03:36:49;;;;;;;;;;;14.60;99.90;;;;;;4974046;28;20400;-83
2021/08/24 03:39:15;;;;;;;;;;;14.50;99.90;;;;;;4990064;28;19921;-83
2021/08/24 03:41:40;;;;;;;;;;;14.50;99.90;;;;;;5000952;28;20018;-83
2021/08/24 03:44:06;;;;;;;;;;;14.50;99.90;;;;;;4972740;28;19922;-83
2021/08/24 03:46:32;;;;;;;;;;;14.50;99.90;;;;;;4965031;28;19925;-83
2021/08/24 03:48:58;;;;;;;;;;;14.50;99.90;;;;;;4974274;28;19922;-83
2021/08/24 03:51:25;;;;;;;;;;;14.50;99.90;;;;;;4947175;28;21058;-84
2021/08/24 03:57:36;;;;;;;;;;;14.50;99.90;;;;;;5002180;28;19960;-83
2021/08/24 04:00:04;;;;;;;;;;;14.50;99.90;;;;;;4989802;28;20188;-83
2021/08/24 04:02:29;;;;;;;;;;;14.50;99.90;;;;;;4975119;28;19925;-83
2021/08/24 04:04:55;;;;;;;;;;;14.40;99.90;;;;;;4975324;28;19929;-83
2021/08/24 04:07:21;;;;;;;;;;;14.40;99.90;;;;;;4975800;28;19926;-83
2021/08/24 04:09:47;;;;;;;;;;;14.40;99.90;;;;;;4975764;28;20455;-83
2021/08/24 04:12:14;;;;;;;;;;;14.40;99.90;;;;;;4974772;28;19921;-83
2021/08/24 04:14:40;;;;;;;;;;;14.40;99.90;;;;;;4972481;28;20021;-83
2021/08/24 04:17:06;;;;;;;;;;;14.40;99.90;;;;;;4950790;28;19928;-83
2021/08/24 04:19:32;;;;;;;;;;;14.40;99.90;;;;;;4989614;28;20304;-83
2021/08/24 04:21:58;;;;;;;;;;;14.40;99.90;;;;;;5002290;28;19928;-83
2021/08/24 04:24:23;;;;;;;;;;;14.40;99.90;;;;;;4991927;28;19957;-83
2021/08/24 04:30:06;;;;;;;;;;;14.30;99.90;;;;;;4968950;28;19935;-83
2021/08/24 04:32:34;;;;;;;;;;;14.40;99.90;;;;;;4977290;28;20399;-83
2021/08/24 04:35:00;;;;;;;;;;;14.40;99.90;;;;;;5000341;28;20400;-83
2021/08/24 04:37:25;;;;;;;;;;;14.30;99.90;;;;;;4974762;28;19972;-83
2021/08/24 04:39:51;;;;;;;;;;;14.30;99.90;;;;;;5011277;28;20340;-83
2021/08/24 04:42:17;;;;;;;;;;;14.30;99.90;;;;;;4976080;28;19932;-83
2021/08/24 04:44:43;;;;;;;;;;;14.30;99.90;;;;;;4975217;28;19925;-83
2021/08/24 04:47:08;;;;;;;;;;;14.30;99.90;;;;;;4974848;28;19948;-83
2021/08/24 04:49:36;;;;;;;;;;;14.20;99.90;;;;;;4988556;28;20293;-83
2021/08/24 04:52:02;;;;;;;;;;;14.30;99.90;;;;;;4978988;28;20565;-83
2021/08/24 04:55:05;;;;;;;;;;;14.30;99.90;;;;;;4993301;28;19968;-84
2021/08/24 04:57:30;;;;;;;;;;;14.20;99.90;;;;;;5002755;28;19930;-82
2021/08/24 04:59:56;;;;;;;;;;;14.30;99.90;;;;;;4973785;28;19928;-82
2021/08/24 05:05:31;;;;;;;;;;;14.30;99.90;;;;;;4991227;28;19975;-85
2021/08/24 05:07:57;;;;;;;;;;;14.30;99.90;;;;;;4989376;28;20328;-81
2021/08/24 05:10:23;;;;;;;;;;;14.30;99.90;;;;;;4954866;28;19965;-81
2021/08/24 05:12:49;;;;;;;;;;;14.30;99.90;;;;;;4967261;28;19972;-81
2021/08/24 05:15:14;;;;;;;;;;;14.30;99.90;;;;;;4974325;28;20288;-81
2021/08/24 05:17:41;;;;;;;;;;;14.30;99.90;;;;;;5006121;28;19925;-82
2021/08/24 05:20:07;;;;;;;;;;;14.40;99.90;;;;;;4974751;28;19951;-81
2021/08/24 05:22:33;;;;;;;;;;;14.40;99.90;;;;;;4975116;28;19929;-82
2021/08/24 05:24:59;;;;;;;;;;;14.40;99.90;;;;;;4994129;28;19995;-81
2021/08/24 05:27:25;;;;;;;;;;;14.40;99.90;;;;;;4977596;28;19925;-81
2021/08/24 05:29:51;;;;;;;;;;;14.40;99.90;;;;;;4978316;28;20315;-81
2021/08/24 05:32:16;;;;;;;;;;;14.40;99.90;;;;;;4977823;28;19928;-82
2021/08/24 05:34:42;;;;;;;;;;;14.40;99.90;;;;;;4975010;28;20316;-81
2021/08/24 05:37:08;;;;;;;;;;;14.50;99.90;;;;;;4993651;28;20024;-82
2021/08/24 05:39:35;;;;;;;;;;;14.50;99.90;;;;;;4980820;28;19921;-82
2021/08/24 05:42:01;;;;;;;;;;;14.50;99.90;;;;;;4976647;28;19925;-82
2021/08/24 05:44:27;;;;;;;;;;;14.50;99.90;;;;;;5009169;28;19925;-82
2021/08/24 05:46:52;;;;;;;;;;;14.60;99.90;;;;;;4979002;28;20377;-82
2021/08/24 05:49:18;;;;;;;;;;;14.60;99.90;;;;;;4953226;28;21115;-82
2021/08/24 05:51:44;;;;;;;;;;;14.60;99.90;;;;;;4983337;28;19926;-82
2021/08/24 05:54:09;;;;;;;;;;;14.60;99.90;;;;;;4973544;28;20354;-82
2021/08/24 05:56:48;;;;;;;;;;;;;;;;;;;;;
2021/08/24 05:59:34;;;;;;;;;;;14.70;99.90;;;;;;5004769;28;19976;-82
2021/08/24 06:02:00;;;;;;;;;;;14.70;99.90;;;;;;4960703;28;20427;-82
2021/08/24 06:04:26;;;;;;;;;;;14.70;99.90;;;;;;4967853;28;20045;-82
2021/08/24 06:06:53;;;;;;;;;;;14.80;99.90;;;;;;4951330;28;19972;-82
2021/08/24 06:09:18;;;;;;;;;;;14.80;99.90;;;;;;4972193;28;19928;-82
2021/08/24 06:11:47;;;;;;;;;;;14.80;99.90;;;;;;4957220;28;19925;-82
2021/08/24 06:14:14;;;;;;;;;;;14.90;99.90;;;;;;4959119;28;20389;-82
2021/08/24 06:16:40;;;;;;;;;;;14.90;99.90;;;;;;4989474;28;19979;-81
2021/08/24 06:19:07;;;;;;;;;;;14.90;99.90;;;;;;4974721;28;19969;-82
2021/08/24 06:21:33;;;;;;;;;;;14.90;99.90;;;;;;4975670;28;20446;-82
2021/08/24 06:24:00;;;;;;;;;;;15.00;99.90;;;;;;4983734;28;19918;-82
2021/08/24 06:26:26;;;;;;;;;;;15.00;99.90;;;;;;4973074;28;19971;-82
2021/08/24 06:28:51;;;;;;;;;;;15.00;99.90;;;;;;4948944;28;19965;-82
2021/08/24 06:31:19;;;;;;;;;;;15.10;99.90;;;;;;4977693;28;19932;-82
2021/08/24 06:33:45;;;;;;;;;;;15.10;99.90;;;;;;4974169;28;19922;-82
2021/08/24 06:36:11;;;;;;;;;;;15.20;99.90;;;;;;4984568;28;19976;-82
2021/08/24 06:47:25;;;;;;;;;;;15.40;99.90;;;;;;5477284;22;19937;-82
2021/08/24 06:49:51;;;;;;;;;;;15.40;99.90;;;;;;4966184;28;19933;-83
2021/08/24 06:55:46;;;;;;;;;;;15.50;99.90;;;;;;4968271;28;19929;-82
2021/08/24 06:58:12;;;;;;;;;;;15.50;99.90;;;;;;4963428;28;19929;-82
2021/08/24 07:00:38;;;;;;;;;;;15.50;99.90;;;;;;4966298;28;19949;-86
2021/08/24 07:03:05;;;;;;;;;;;15.50;99.90;;;;;;4975120;28;20250;-86
2021/08/24 07:05:32;;;;;;;;;;;15.60;99.90;;;;;;4976056;28;19922;-86
2021/08/24 07:07:58;;;;;;;;;;;15.60;99.90;;;;;;4988618;28;19921;-82
2021/08/24 07:10:24;;;;;;;;;;;15.60;99.90;;;;;;4964205;28;19977;-82
2021/08/24 07:12:49;;;;;;;;;;;15.70;99.90;;;;;;4965588;28;19973;-86
2021/08/24 07:15:17;;;;;;;;;;;15.70;99.90;;;;;;4966799;28;19925;-87
2021/08/24 07:17:43;;;;;;;;;;;15.70;99.90;;;;;;4973862;28;19929;-86
2021/08/24 07:20:11;;;;;;;;;;;15.80;99.90;;;;;;4963851;28;19928;-85
2021/08/24 07:22:37;;;;;;;;;;;15.80;99.90;;;;;;4974853;28;19927;-86
2021/08/24 07:25:07;;;;;;;;;;;15.90;99.90;;;;;;4975618;28;20021;-87
2021/08/24 07:27:32;;;;;;;;;;;15.90;99.90;;;;;;4988724;28;20276;-86
2021/08/24 07:29:58;;;;;;;;;;;15.90;99.90;;;;;;4993084;28;19921;-87
2021/08/24 07:32:24;;;;;;;;;;;15.90;99.90;;;;;;4975756;28;19925;-86
2021/08/24 07:34:50;;;;;;;;;;;15.90;99.90;;;;;;4960101;28;19929;-87
2021/08/24 07:37:15;;;;;;;;;;;15.90;99.90;;;;;;4971418;28;19980;-87
2021/08/24 07:39:41;;;;;;;;;;;16.00;99.90;;;;;;4972919;28;19921;-87
2021/08/24 07:42:07;;;;;;;;;;;16.10;99.90;;;;;;4992261;28;19932;-86
2021/08/24 07:44:33;;;;;;;;;;;16.10;99.90;;;;;;4973140;28;20007;-87
2021/08/24 07:47:00;;;;;;;;;;;16.10;99.90;;;;;;4994307;28;19929;-86
2021/08/24 07:49:26;;;;;;;;;;;16.20;99.90;;;;;;4982626;28;19925;-87
2021/08/24 07:51:54;;;;;;;;;;;16.20;99.90;;;;;;4984577;28;19987;-86
2021/08/24 07:54:21;;;;;;;;;;;16.20;99.90;;;;;;4968749;28;19930;-87
2021/08/24 07:56:46;;;;;;;;;;;16.30;99.90;;;;;;4976145;28;19932;-87
2021/08/24 07:59:12;;;;;;;;;;;16.30;99.90;;;;;;4994969;28;19929;-87
2021/08/24 08:01:38;;;;;;;;;;;16.40;99.90;;;;;;4982091;28;19937;-86
2021/08/24 08:04:03;;;;;;;;;;;16.40;99.90;;;;;;4960693;28;19932;-86
2021/08/24 08:06:29;;;;;;;;;;;16.40;99.90;;;;;;4960257;28;19932;-86
2021/08/24 08:08:55;;;;;;;;;;;16.50;99.90;;;;;;4976364;28;19953;-86
2021/08/24 08:11:21;;;;;;;;;;;16.50;99.90;;;;;;4971638;28;20295;-87
2021/08/24 08:13:46;;;;;;;;;;;16.50;99.90;;;;;;4979824;28;19922;-86
2021/08/24 08:16:12;;;;;;;;;;;16.60;99.90;;;;;;4958857;28;19948;-82
2021/08/24 08:18:38;;;;;;;;;;;16.70;99.90;;;;;;4975625;28;19926;-82
2021/08/24 08:21:03;;;;;;;;;;;16.80;99.90;;;;;;4985018;28;19932;-82
2021/08/24 08:23:29;;;;;;;;;;;16.90;99.90;;;;;;4978970;28;20056;-82
2021/08/24 08:25:55;;;;;;;;;;;16.90;99.90;;;;;;4978052;28;19983;-82
2021/08/24 08:28:20;;;;;;;;;;;16.90;99.90;;;;;;4959409;28;19980;-82
2021/08/24 08:30:46;;;;;;;;;;;17.00;99.90;;;;;;4975689;28;20384;-82
2021/08/24 08:33:12;;;;;;;;;;;17.10;99.90;;;;;;4975183;28;20408;-82
2021/08/24 08:35:38;;;;;;;;;;;17.20;99.90;;;;;;4975059;28;20374;-82
2021/08/24 08:38:03;;;;;;;;;;;17.20;99.90;;;;;;4982699;28;20388;-82
2021/08/24 08:40:35;;;;;;;;;;;17.30;99.90;;;;;;4959225;28;19925;-82
2021/08/24 08:43:07;;;;;;;;;;;17.30;99.90;;;;;;4984389;28;19925;-82
2021/08/24 08:45:33;;;;;;;;;;;17.40;99.90;;;;;;4994367;28;19925;-82
2021/08/24 08:47:58;;;;;;;;;;;17.40;99.90;;;;;;4994304;28;20016;-82
2021/08/24 08:50:28;;;;;;;;;;;17.40;99.90;;;;;;4980355;28;20313;-82
2021/08/24 08:52:56;;;;;;;;;;;17.40;99.90;;;;;;4983214;28;19925;-81
2021/08/24 08:55:28;;;;;;;;;;;17.40;99.90;;;;;;4967613;28;20011;-82
2021/08/24 08:58:10;;;;;;;;;;;17.40;99.90;;;;;;4974427;28;19926;-81
2021/08/24 09:00:47;;;;;;;;;;;17.40;99.90;;;;;;4974804;28;19925;-82
2021/08/24 09:03:17;;;;;;;;;;;17.40;99.90;;;;;;4974524;28;19928;-82
2021/08/24 09:05:45;;;;;;;;;;;17.40;99.90;;;;;;4974403;28;19922;-82
2021/08/24 09:08:11;;;;;;;;;;;17.50;99.90;;;;;;4974399;28;20656;-81
2021/08/24 09:10:47;;;;;;;;;;;17.50;99.90;;;;;;4964692;28;19925;-82
2021/08/24 09:13:32;;;;;;;;;;;17.50;99.90;;;;;;4982863;28;20273;-82
2021/08/24 09:16:13;;;;;;;;;;;17.50;99.90;;;;;;4990120;28;19979;-81
2021/08/24 09:18:41;;;;;;;;;;;17.50;99.90;;;;;;4974850;28;20365;-82
2021/08/24 09:21:09;;;;;;;;;;;17.50;99.90;;;;;;4991042;28;21067;-82
2021/08/24 09:23:34;;;;;;;;;;;17.50;99.90;;;;;;4975069;28;19976;-82
2021/08/24 09:26:07;;;;;;;;;;;17.50;99.90;;;;;;4974395;28;20353;-82
2021/08/24 09:28:33;;;;;;;;;;;17.50;99.90;;;;;;4974535;28;19925;-82
2021/08/24 09:31:03;;;;;;;;;;;17.50;99.90;;;;;;4991129;28;19980;-82
2021/08/24 09:33:30;;;;;;;;;;;17.60;99.90;;;;;;4975097;28;20012;-82
2021/08/24 09:35:56;;;;;;;;;;;17.60;99.90;;;;;;4965715;28;20372;-82
2021/08/24 09:38:27;;;;;;;;;;;17.60;99.90;;;;;;4974630;28;20507;-81
2021/08/24 09:40:53;;;;;;;;;;;17.60;99.90;;;;;;4990677;28;20385;-82
2021/08/24 09:43:25;;;;;;;;;;;17.60;99.90;;;;;;4993453;28;20444;-81
2021/08/24 09:46:14;;;;;;;;;;;17.70;99.90;;;;;;4993842;28;19932;-81
2021/08/24 09:48:56;;;;;;;;;;;17.70;99.90;;;;;;4986432;28;20359;-82
2021/08/24 09:51:40;;;;;;;;;;;17.70;99.90;;;;;;4971797;28;20000;-82
2021/08/24 09:54:38;;;;;;;;;;;17.70;99.90;;;;;;4994821;28;19927;-82
2021/08/24 09:57:14;;;;;;;;;;;17.80;99.90;;;;;;4983163;28;19930;-82
2021/08/24 09:59:42;;;;;;;;;;;17.80;99.90;;;;;;4981168;28;20323;-82
2021/08/24 10:02:28;;;;;;;;;;;17.80;99.90;;;;;;4993194;28;19961;-82
2021/08/24 10:04:54;;;;;;;;;;;17.90;99.90;;;;;;4983584;28;20296;-82
2021/08/24 10:07:37;;;;;;;;;;;17.90;99.90;;;;;;4977040;28;19925;-82
2021/08/24 10:10:03;;;;;;;;;;;18.00;99.90;;;;;;4984889;28;19926;-82
2021/08/24 10:12:30;;;;;;;;;;;18.00;99.90;;;;;;4977763;28;19922;-82
2021/08/24 10:14:56;;;;;;;;;;;18.20;99.90;;;;;;4977889;28;19927;-82
2021/08/24 10:17:36;;;;;;;;;;;18.30;99.90;;;;;;4977150;28;21137;-82
2021/08/24 10:20:34;;;;;;;;;;;18.30;99.90;;;;;;4977234;28;20440;-82
2021/08/24 10:23:10;;;;;;;;;;;18.30;99.90;;;;;;4913504;29;19974;-82
2021/08/24 10:25:47;;;;;;;;;;;18.30;99.90;;;;;;4935739;28;19929;-82
2021/08/24 10:28:18;;;;;;;;;;;18.30;99.90;;;;;;4996612;28;20008;-82
2021/08/24 10:30:46;;;;;;;;;;;18.30;99.90;;;;;;4982038;28;20000;-82
2021/08/24 10:33:32;;;;;;;;;;;18.40;99.90;;;;;;4977066;28;19929;-82
2021/08/24 10:36:04;;;;;;;;;;;18.50;99.90;;;;;;4977321;28;19921;-82
2021/08/24 10:38:36;;;;;;;;;;;18.50;99.90;;;;;;4990964;28;19929;-83
2021/08/24 10:41:01;;;;;;;;;;;18.50;99.90;;;;;;4996882;28;19932;-82
2021/08/24 10:43:36;;;;;;;;;;;18.50;99.90;;;;;;4996772;28;20303;-82
2021/08/24 10:46:07;;;;;;;;;;;18.50;99.90;;;;;;4971683;28;19925;-82
2021/08/24 10:48:34;;;;;;;;;;;18.50;99.90;;;;;;4990661;28;20355;-87
2021/08/24 10:51:07;;;;;;;;;;;18.50;99.90;;;;;;4986298;28;19925;-86
2021/08/24 10:53:51;;;;;;;;;;;18.60;99.90;;;;;;4977315;28;19965;-86
2021/08/24 10:56:23;;;;;;;;;;;18.60;99.90;;;;;;4977700;28;20024;-86
2021/08/24 10:58:55;;;;;;;;;;;18.70;99.90;;;;;;4985339;28;19925;-87
2021/08/24 11:01:24;;;;;;;;;;;18.70;99.90;;;;;;5003925;28;20396;-86
2021/08/24 11:03:57;;;;;;;;;;;18.70;99.90;;;;;;4966755;28;19932;-85
2021/08/24 11:06:22;;;;;;;;;;;18.80;99.90;;;;;;4967626;28;19925;-86
2021/08/24 11:08:56;;;;;;;;;;;18.80;99.90;;;;;;4960211;28;20400;-85
2021/08/24 11:11:31;;;;;;;;;;;18.80;99.90;;;;;;4964467;28;20444;-87
2021/08/24 11:14:00;;;;;;;;;;;18.90;99.90;;;;;;4964413;28;20454;-87
2021/08/24 11:16:35;;;;;;;;;;;19.00;99.90;;;;;;4965696;28;20408;-87
2021/08/24 11:19:07;;;;;;;;;;;19.00;99.90;;;;;;4964485;28;19945;-87
2021/08/24 11:21:45;;;;;;;;;;;19.00;99.90;;;;;;4962475;28;19925;-87
2021/08/24 11:24:21;;;;;;;;;;;19.00;99.90;;;;;;4964789;28;19929;-87
2021/08/24 11:26:54;;;;;;;;;;;19.00;99.90;;;;;;4968259;28;20113;-87
2021/08/24 11:29:19;;;;;;;;;;;19.00;99.90;;;;;;4961982;28;20364;-87
2021/08/24 11:31:47;;;;;;;;;;;19.00;99.90;;;;;;4968422;28;20499;-88
2021/08/24 11:34:15;;;;;;;;;;;19.00;99.90;;;;;;4970479;28;20304;-88
2021/08/24 11:36:45;;;;;;;;;;;19.00;99.90;;;;;;4968504;28;19976;-89
2021/08/24 11:39:16;;;;;;;;;;;19.10;99.90;;;;;;4964909;28;20393;-89
2021/08/24 11:41:43;;;;;;;;;;;19.10;99.90;;;;;;4968169;28;20415;-88
2021/08/24 11:44:15;;;;;;;;;;;19.10;99.90;;;;;;4968296;28;19922;-88
2021/08/24 11:46:54;;;;;;;;;;;19.20;99.90;;;;;;4964150;28;20664;-88
2021/08/24 11:49:26;;;;;;;;;;;19.20;99.90;;;;;;4967553;28;19926;-88
2021/08/24 11:52:10;;;;;;;;;;;19.30;99.90;;;;;;4964760;28;19922;-88
2021/08/24 11:54:44;;;;;;;;;;;19.30;99.90;;;;;;4980367;28;19932;-88
2021/08/24 11:57:09;;;;;;;;;;;19.40;99.90;;;;;;4958366;28;19926;-87
2021/08/24 11:59:42;;;;;;;;;;;19.50;99.90;;;;;;4966168;28;19987;-87
2021/08/24 12:02:47;;;;;;;;;;;19.60;99.90;;;;;;4980727;28;19921;-88
2021/08/24 12:05:23;;;;;;;;;;;19.70;99.90;;;;;;4915472;29;20393;-89
2021/08/24 12:08:12;;;;;;;;;;;19.80;99.90;;;;;;4912893;29;19927;-84
2021/08/24 12:11:03;;;;;;;;;;;19.80;99.90;;;;;;4945727;28;20408;-83
2021/08/24 12:14:07;;;;;;;;;;;19.80;99.90;;;;;;4957775;28;19960;-84
2021/08/24 12:16:33;;;;;;;;;;;19.90;99.90;;;;;;4934531;28;19984;-84
2021/08/24 12:19:05;;;;;;;;;;;20.00;99.90;;;;;;4919351;28;19957;-84
2021/08/24 12:21:37;;;;;;;;;;;20.00;99.90;;;;;;4946313;28;19925;-83
2021/08/24 12:24:21;;;;;;;;;;;20.00;99.90;;;;;;4966436;28;19929;-85
2021/08/24 12:26:47;;;;;;;;;;;20.00;99.90;;;;;;4976630;28;19932;-85
2021/08/24 12:29:32;;;;;;;;;;;20.00;99.90;;;;;;4985746;28;19925;-84
2021/08/24 12:31:59;;;;;;;;;;;20.00;99.90;;;;;;4989615;28;19922;-85
2021/08/24 12:34:34;;;;;;;;;;;19.90;99.90;;;;;;4975731;28;19925;-85
2021/08/24 12:37:00;;;;;;;;;;;19.80;99.90;;;;;;4979141;28;20048;-84
2021/08/24 12:39:35;;;;;;;;;;;19.80;99.90;;;;;;4975946;28;20527;-84
2021/08/24 12:42:18;;;;;;;;;;;19.70;99.90;;;;;;4975030;28;19925;-84
2021/08/24 12:44:47;;;;;;;;;;;19.80;99.90;;;;;;4964812;28;20300;-84
2021/08/24 12:47:19;;;;;;;;;;;19.70;99.90;;;;;;4975790;28;20304;-85
2021/08/24 12:49:44;;;;;;;;;;;19.80;99.90;;;;;;4986004;28;20039;-85
2021/08/24 12:52:19;;;;;;;;;;;19.90;99.90;;;;;;4950000;28;20545;-84
2021/08/24 12:54:47;;;;;;;;;;;20.00;99.90;;;;;;4956856;28;19985;-84
2021/08/24 12:57:31;;;;;;;;;;;20.00;99.90;;;;;;4969889;28;19925;-84
2021/08/24 13:00:10;;;;;;;;;;;20.00;99.90;;;;;;4977007;28;20373;-84
2021/08/24 13:02:36;;;;;;;;;;;20.00;99.90;;;;;;4971853;28;19925;-84
2021/08/24 13:05:14;;;;;;;;;;;20.00;99.90;;;;;;4981987;28;19968;-85
2021/08/24 13:07:44;;;;;;;;;;;20.00;99.90;;;;;;4979971;28;19925;-84
2021/08/24 13:10:32;;;;;;;;;;;20.10;99.90;;;;;;4984607;28;19957;-84
2021/08/24 13:12:58;;;;;;;;;;;20.10;99.90;;;;;;4972091;28;19929;-84
2021/08/24 13:15:40;;;;;;;;;;;20.20;99.90;;;;;;4963029;28;19925;-84
2021/08/24 13:18:08;;;;;;;;;;;20.20;99.90;;;;;;4989002;28;20292;-84
2021/08/24 13:20:36;;;;;;;;;;;20.20;99.90;;;;;;4970980;28;19922;-84
2021/08/24 13:23:03;;;;;;;;;;;20.20;99.90;;;;;;4967164;28;19926;-84
2021/08/24 13:25:35;;;;;;;;;;;20.20;99.90;;;;;;4977213;28;20471;-84
2021/08/24 13:28:10;;;;;;;;;;;20.20;99.90;;;;;;4981697;28;20390;-84
2021/08/24 13:30:41;;;;;;;;;;;20.30;99.90;;;;;;4969435;28;20277;-85
2021/08/24 13:33:27;;;;;;;;;;;20.30;99.90;;;;;;4971582;28;19929;-84
2021/08/24 13:35:55;;;;;;;;;;;20.30;99.90;;;;;;4971986;28;19929;-90
2021/08/24 13:38:21;;;;;;;;;;;20.20;99.90;;;;;;4983085;28;19992;-89
2021/08/24 13:40:49;;;;;;;;;;;20.20;99.90;;;;;;4977246;28;20444;-89
2021/08/24 13:43:22;;;;;;;;;;;20.20;99.90;;;;;;4974945;28;19926;-90
2021/08/24 13:45:49;;;;;;;;;;;20.20;99.90;;;;;;4985045;28;19921;-89
2021/08/24 13:48:17;;;;;;;;;;;20.30;99.90;;;;;;4984498;28;20039;-89
2021/08/24 13:50:43;;;;;;;;;;;20.40;99.90;;;;;;4979645;28;19975;-90
2021/08/24 13:53:15;;;;;;;;;;;20.40;99.90;;;;;;4978233;28;20409;-89
2021/08/24 13:55:50;;;;;;;;;;;20.60;99.90;;;;;;4985339;28;19969;-89
2021/08/24 13:58:18;;;;;;;;;;;20.70;99.90;;;;;;4971119;28;20451;-89
2021/08/24 14:01:02;;;;;;;;;;;20.70;99.90;;;;;;4990809;28;19917;-89
2021/08/24 14:03:31;;;;;;;;;;;20.70;99.90;;;;;;4978896;28;20393;-88
2021/08/24 14:05:57;;;;;;;;;;;20.60;99.90;;;;;;4972980;28;20044;-85
2021/08/24 14:08:24;;;;;;;;;;;20.60;99.90;;;;;;4969428;28;19929;-84
2021/08/24 14:10:58;;;;;;;;;;;20.50;99.90;;;;;;4986547;28;20300;-85
2021/08/24 14:13:24;;;;;;;;;;;20.50;99.90;;;;;;4993138;28;19921;-85
2021/08/24 14:15:51;;;;;;;;;;;20.50;99.90;;;;;;4967907;28;19972;-84
2021/08/24 14:18:23;;;;;;;;;;;20.50;99.90;;;;;;4965932;28;20381;-89
2021/08/24 14:20:59;;;;;;;;;;;20.60;99.90;;;;;;4969810;28;20453;-89
2021/08/24 14:23:44;;;;;;;;;;;20.60;99.90;;;;;;4968067;28;19929;-89
2021/08/24 14:26:31;;;;;;;;;;;20.60;99.90;;;;;;4974605;28;19925;-84
2021/08/24 14:29:00;;;;;;;;;;;20.60;99.90;;;;;;4965930;28;19973;-84
2021/08/24 14:31:28;;;;;;;;;;;20.70;99.90;;;;;;4983007;28;19925;-88
2021/08/24 14:34:17;;;;;;;;;;;20.70;99.90;;;;;;4994129;28;20292;-90
2021/08/24 14:36:44;;;;;;;;;;;20.70;99.90;;;;;;4968057;28;19965;-90
2021/08/24 14:39:10;;;;;;;;;;;20.70;99.90;;;;;;4970921;28;19929;-88
2021/08/24 14:41:45;;;;;;;;;;;20.60;99.90;;;;;;5005428;22;19972;-86
2021/08/24 14:44:25;;;;;;;;;;;20.50;99.90;;;;;;4946888;28;20497;-83
2021/08/24 14:47:01;;;;;;;;;;;20.50;99.90;;;;;;4937638;28;19918;-83
2021/08/24 14:49:26;;;;;;;;;;;20.60;99.90;;;;;;4935369;28;20464;-83
2021/08/24 14:51:52;;;;;;;;;;;20.50;99.90;;;;;;4935453;28;19926;-83
2021/08/24 14:54:26;;;;;;;;;;;20.60;99.90;;;;;;4937180;28;19928;-88
2021/08/24 14:56:56;;;;;;;;;;;20.50;99.90;;;;;;4926507;28;19958;-89
2021/08/24 14:59:29;;;;;;;;;;;20.50;99.90;;;;;;4953009;28;19932;-92
2021/08/24 15:02:07;;;;;;;;;;;20.60;99.90;;;;;;4931775;28;19926;-88
2021/08/24 15:04:34;;;;;;;;;;;20.50;99.90;;;;;;4948459;28;19929;-88
2021/08/24 15:10:38;;;;;;;;;;;20.30;99.90;;;;;;4908172;28;19934;-90
2021/08/24 15:13:04;;;;;;;;;;;20.30;99.90;;;;;;4925066;28;20043;-86
2021/08/24 15:15:34;;;;;;;;;;;20.30;99.90;;;;;;4929771;28;19935;-86